ADDS METAR Data INFO
IDs: Format: Raw Decoded Include TAF

Data at: 0844 UTC 27 Jun 2017

KGLS 270818Z AUTO 10006KT 3SM +RA BR SCT013 BKN046 OVC075 26/25 A3000 RMK AO2 TSE06 P0021 T02560250
KGLS 270811Z AUTO 11006KT 2 1/2SM VCTS +RA BR SCT013 BKN020 OVC044 26/25 A3000 RMK AO2 TSE06 P0018 T02560250
KGLS 270759Z AUTO 12007KT 2SM +TSRA BR OVC013 25/25 A3000 RMK AO2 LTG DSNT N P0005 T02500250
KGLS 270752Z AUTO 00000KT 1SM +TSRA BR VV015 24/24 A3000 RMK AO2 LTG DSNT N RAB20 TSB46 SLP159 P0092 T02440244
KGLS 270746Z AUTO 13009KT 1SM +TSRA BR BKN014 BKN018 OVC048 25/24 A3001 RMK AO2 LTG DSNT N AND NW RAB20 TSB46 P0076
KGLS 270739Z AUTO 13011G20KT 1SM +RA BR BKN014 BKN020 OVC050 26/24 A3000 RMK AO2 LTG DSNT NW RAB20 P0045 T02560244
KGLS 270733Z AUTO 11016G20KT 2 1/2SM RA BR BKN017 BKN050 OVC060 26/25 A2999 RMK AO2 VIS 1V5 LTG DSNT NW RAB20 P0016 T02610250
KGLS 270725Z AUTO 11010KT 7SM -RA SCT019 BKN048 OVC075 26/24 A2999 RMK AO2 LTG DSNT NW RAB20 P0003 T02610244
KGLS 270717Z AUTO 10012KT 10SM BKN019 BKN050 OVC075 27/24 A2999 RMK AO2 T02670244
KGLS 270710Z AUTO 09010KT 10SM SCT019 BKN034 OVC095 27/24 A2999 RMK AO2 T02670244
KGLS 270652Z AUTO 08008KT 10SM BKN019 BKN030 OVC120 27/25 A3000 RMK AO2 RAE13 SLP159 P0000 T02670250
KGLS 270639Z AUTO 08008KT 10SM BKN017 BKN024 OVC120 27/25 A3001 RMK AO2 RAE13 P0000 T02670250
KGLS 270552Z AUTO 13011KT 10SM -RA FEW110 27/24 A3000 RMK AO2 TSE0454 SLP157 P0016 60186 T02670244 10283 20233 403000233 58010
KGLS 270520Z AUTO 00000KT 8SM -RA SCT021 SCT037 BKN100 25/24 A3001 RMK AO2 TSE0454 P0014 T02500244
KGLS 270513Z AUTO 00000KT 4SM RA BR SCT021 BKN029 BKN100 24/24 A3002 RMK AO2 TSE0454 P0014 T02440244
KGLS 270504Z AUTO 27005KT 2 1/2SM +RA BR SCT012 BKN019 OVC024 24/24 A3003 RMK AO2 TSE0454 P0011 T02440239
KGLS 270457Z AUTO 28007KT 1SM +RA BR BKN014 BKN022 OVC030 24/24 A3003 RMK AO2 TSE54 P0008 T02440239
KGLS 270452Z AUTO 20006KT 1/2SM +TSRA FG BKN011 OVC019 24/24 A3003 RMK AO2 RAB16 TSB34 SLP168 P0125 T02440239
KGLS 270449Z AUTO 00000KT 1/2SM +TSRA FG BKN009 OVC019 24/24 A3003 RMK AO2 RAB16 TSB34 P0117
KGLS 270437Z AUTO 03010KT 3/4SM +TSRA BR FEW009 OVC019 24/24 A3003 RMK AO2 LTG DSNT N RAB16 TSB34 P0046 T02440239
KGLS 270434Z AUTO 05009KT 1 3/4SM +TSRA BR FEW011 OVC019 26/24 A3003 RMK AO2 LTG DSNT N AND NE RAB16 TSB34 P0020 T02560244
KGLS 270416Z AUTO 31005KT 10SM -RA BKN021 OVC100 26/25 A3002 RMK AO2 LTG DSNT N AND NE RAB16 P0000 T02610250
KGLS 270352Z AUTO 34004KT 10SM OVC100 27/25 A3003 RMK AO2 LTG DSNT N AND NW RAE06 SLP167 P0000 T02670250
KGLS 270252Z AUTO 16004KT 10SM -RA CLR 26/24 A3000 RMK AO2 LTG DSNT N AND NW SLP159 P0002 60045 T02610244 58006
KGLS 270152Z AUTO 18006KT 10SM -RA FEW110 26/25 A3000 RMK AO2 LTG DSNT W AND NW SLP159 P0029 T02560250
KGLS 270118Z AUTO 12003KT 3SM +RA BR FEW020 BKN035 OVC060 24/24 A3002 RMK AO2 P0026 T02390239
KGLS 270106Z AUTO 10008G19KT 1 1/4SM +RA BR FEW015 BKN031 OVC046 24/23 A3003 RMK AO2 P0016 T02390233
KGLS 270059Z AUTO 10013KT 1 1/2SM +RA BR FEW017 BKN029 OVC046 23/23 A3003 RMK AO2 P0006 T02330228
KGLS 270052Z AUTO 10016G23KT 1 1/2SM VCTS +RA BR SCT017 BKN034 BKN046 24/23 A3002 RMK AO2 RAB39 SLP166 P0014 T02390228
KGLS 270047Z AUTO 11021KT 2SM VCTS +RA BR SCT018 SCT028 BKN044 24/23 A3002 RMK AO2 RAB39 P0008
KGLS 270046Z AUTO 10021KT 2 1/2SM VCTS RA BR SCT016 BKN026 BKN044 24/23 A3002 RMK AO2 RAB39 P0006
KGLS 270038Z AUTO 14012KT 10SM VCTS SCT017 BKN110 28/25 A3001 RMK AO2 T02780250
KGLS 262352Z AUTO 10010KT 10SM FEW017 SCT046 SCT075 28/25 A2999 RMK AO2 SLP156 T02830250 10300 20283 55008
KGLS 262252Z 10009KT 10SM CLR 28/24 A2999 RMK AO2 SLP155 T02830244
KGLS 262152Z 10008KT 10SM CLR 29/24 A3000 RMK AO2 LTG DSNT N SLP160 T02890244
KGLS 262052Z 09010KT 10SM CLR 29/25 A3002 RMK AO2 SLP165 T02940250 56018
KGLS 261952Z 10012KT 10SM FEW020 30/25 A3003 RMK AO2 LTG DSNT N SLP167 T03000250
KGLS 261933Z 10011KT 10SM SCT020 30/26 A3004 RMK AO2 T03000256
KGLS 261922Z 09011KT 10SM BKN019 30/25 A3004 RMK AO2 T03000250
KGLS 261852Z 06012KT 10SM SCT018 29/25 A3005 RMK AO2 SLP176 T02940250
KGLS 261752Z 09011KT 10SM SCT019 SCT027 29/25 A3007 RMK AO2 SLP183 60001 T02940250 10294 20256 58008
KGLS 261652Z 08009KT 10SM BKN019 BKN024 29/25 A3008 RMK AO2 SLP187 T02890250
KGLS 261626Z 08011KT 10SM SCT019 29/24 A3009 RMK AO2 T02940244
KGLS 261614Z 05010KT 10SM SCT019 BKN024 29/24 A3009 RMK AO2 T02890244
KGLS 261552Z 05011KT 10SM SCT016 29/25 A3010 RMK AO2 SLP191 T02890250
KGLS 261541Z 07009KT 10SM SCT016 SCT023 28/24 A3010 RMK AO2 T02830244
KGLS 261513Z 05010KT 7SM SCT016 BKN021 28/25 A3010 RMK AO2 T02780250
KGLS 261452Z 06007KT 10SM CLR 28/25 A3010 RMK AO2 RAE28 SLP191 P0000 60001 T02780250 51007
KGLS 261352Z 09008KT 10SM -RA SCT050 SCT070 BKN085 26/23 A3010 RMK AO2 RAB42 SLP191 P0001 T02610233
KGLS 261252Z 06011KT 7SM FEW011 BKN032 BKN044 26/25 A3009 RMK AO2 SLP188 T02610250
KGLS 261225Z 05010KT 10SM SCT027 26/25 A3008 RMK AO2 LTG DSNT E T02560250
KGLS 261152Z 03010KT 9SM SCT009 OVC018 26/25 A3008 RMK AO2 LTG DSNT E RAB20E43 SLP185 P0000 60000 70010 T02560250 10272 20256 52002
KGLS 261147Z 03010KT 8SM SCT007 BKN018 OVC037 26/25 A3007 RMK AO2 LTG DSNT E RAB20E43 P0000
KGLS 261122Z 03009KT 10SM -RA BKN007 BKN017 OVC024 26/25 A3008 RMK AO2 RAB20 P0000 T02560250
KGLS 261113Z 03006KT 10SM SCT007 BKN017 BKN025 26/25 A3008 RMK AO2 T02610250
KGLS 261052Z 34008KT 10SM BKN018 26/23 A3008 RMK AO2 TSE05 SLP184 T02610228
KGLS 261032Z 24003KT 10SM BKN018 BKN027 BKN046 26/22 A3007 RMK AO2 TSE05 T02610222
KGLS 261008Z AUTO 30004KT 10SM CLR 26/22 A3007 RMK AO2 TSE05 T02610222
KGLS 260952Z AUTO 00000KT 10SM TS CLR 27/25 A3007 RMK AO2 TSB50 SLP183 T02670250
KGLS 260852Z AUTO 09004KT 10SM CLR 27/25 A3007 RMK AO2 SLP181 T02670250 56010
KGLS 260752Z AUTO 09009KT 10SM FEW018 27/24 A3007 RMK AO2 SLP183 T02720244
KGLS 260652Z AUTO 14008KT 10SM SCT019 27/25 A3007 RMK AO2 SLP183 T02720250
KGLS 260552Z AUTO 10009KT 10SM CLR 27/24 A3010 RMK AO2 SLP191 60001 T02670244 10289 20256 403000256 58000
KGLS 260452Z AUTO 06008KT 10SM FEW034 SCT075 BKN110 26/24 A3012 RMK AO2 RAB11E26B32E51 TSB33E48 SLP200 P0001 T02560244
KGLS 260439Z AUTO 05009KT 10SM -TSRA SCT032 BKN075 OVC090 26/24 A3012 RMK AO2 RAB11E26B32 TSB33 P0001 T02560244
KGLS 260427Z AUTO 06010KT 10SM FEW019 BKN034 OVC090 26/24 A3012 RMK AO2 RAB11E26 P0000 T02560244
KGLS 260400Z AUTO 07013G21KT 10SM SCT016 BKN022 27/24 A3011 RMK AO2 T02670244
KGLS 260352Z AUTO 08015G19KT 10SM SCT016 27/25 A3011 RMK AO2 SLP196 T02720250
KGLS 260252Z AUTO 10008KT 10SM CLR 28/24 A3010 RMK AO2 SLP192 T02780244 53007
KGLS 260152Z AUTO 09005KT 10SM CLR 28/25 A3008 RMK AO2 LTG DSNT N AND NE SLP187 T02780250
KGLS 260052Z AUTO 09007KT 10SM CLR 28/24 A3008 RMK AO2 SLP187 T02830244
KGLS 252352Z AUTO 07006KT 10SM CLR 29/24 A3008 RMK AO2 SLP185 T02890244 10300 20267 55001
KGLS 252252Z 07008KT 10SM CLR 30/24 A3007 RMK AO2 SLP182 T03000244
KGLS 252152Z 09009KT 10SM CLR 29/25 A3009 RMK AO2 SLP188 T02940250
KGLS 252052Z 08010KT 10SM FEW021 30/25 A3008 RMK AO2 SLP186 T03000250 58010


Page loaded:  08:44 UTC  |   01:44 AM Pacific  |   02:44 AM Mountain  |   03:44 AM Central  |   04:44 AM Eastern

 

ADVISORIES

FORECASTS

FORECASTS

OBSERVATIONS

USER TOOLS

ABOUT US